createdAt,value
2022-08-20T00:00:31.074Z,21.35
2022-08-20T00:03:01.338Z,22.33
2022-08-20T00:05:33.038Z,33.90
2022-08-20T00:08:00.955Z,23.27
2022-08-20T00:10:29.635Z,26.38
2022-08-20T00:12:57.015Z,24.42
2022-08-20T00:15:31.455Z,22.33
2022-08-20T00:17:59.426Z,15.18
2022-08-20T00:20:30.291Z,22.80
2022-08-20T00:22:58.157Z,29.00
2022-08-20T00:25:27.211Z,23.02
2022-08-20T00:27:55.099Z,25.90
2022-08-20T00:30:23.643Z,25.50
2022-08-20T00:32:59.765Z,25.33
2022-08-20T00:35:29.832Z,22.27
2022-08-20T00:38:00.478Z,27.00
2022-08-20T00:40:38.892Z,25.27
2022-08-20T00:43:23.448Z,26.80
2022-08-20T00:45:51.117Z,25.02
2022-08-20T00:48:18.550Z,32.63
2022-08-20T00:50:45.591Z,29.70
2022-08-20T00:53:12.743Z,23.23
2022-08-20T00:55:39.869Z,28.02
2022-08-20T00:58:09.590Z,27.58
2022-08-20T01:00:44.835Z,23.02
2022-08-20T01:03:14.983Z,28.38
2022-08-20T01:05:48.529Z,20.80
2022-08-20T01:08:18.441Z,33.20
2022-08-20T01:10:48.854Z,30.15
2022-08-20T01:13:23.763Z,33.75
2022-08-20T01:15:54.694Z,28.98
2022-08-20T01:18:27.775Z,25.58
2022-08-20T01:21:00.520Z,23.20
2022-08-20T01:23:51.801Z,20.60
2022-08-20T01:26:23.414Z,30.25
2022-08-20T01:28:55.380Z,22.30
2022-08-20T01:31:29.116Z,25.65
2022-08-20T01:36:31.590Z,29.42
2022-08-20T01:39:00.556Z,20.67
2022-08-20T01:41:36.491Z,27.35
2022-08-20T01:44:03.757Z,24.25
2022-08-20T01:46:36.758Z,24.85
2022-08-20T01:49:13.570Z,24.17
2022-08-20T01:51:42.399Z,23.58
2022-08-20T01:54:09.798Z,24.05
2022-08-20T01:56:56.050Z,25.27
2022-08-20T01:59:23.865Z,28.25
2022-08-20T02:01:51.602Z,21.67
2022-08-20T02:04:19.839Z,24.80
2022-08-20T02:06:57.217Z,25.33
2022-08-20T02:09:27.320Z,18.50
2022-08-20T02:11:54.834Z,24.98
2022-08-20T02:14:22.008Z,25.08
2022-08-20T02:16:55.298Z,24.48
2022-08-20T02:19:27.540Z,24.02
2022-08-20T02:21:58.150Z,22.95
2022-08-20T02:24:25.288Z,24.27
2022-08-20T02:26:52.884Z,27.10
2022-08-20T02:29:19.973Z,26.48
2022-08-20T02:32:32.047Z,26.90
2022-08-20T02:34:35.162Z,28.88
2022-08-20T02:37:03.861Z,29.17
2022-08-20T02:39:30.967Z,27.45
2022-08-20T02:41:57.950Z,31.98
2022-08-20T02:44:24.999Z,26.33
2022-08-20T02:46:51.966Z,24.70
2022-08-20T02:49:20.139Z,28.38
2022-08-20T02:51:47.271Z,21.40
2022-08-20T02:54:14.643Z,23.95
2022-08-20T02:56:42.135Z,23.60
2022-08-20T02:59:09.084Z,25.42
2022-08-20T03:01:39.635Z,19.80
2022-08-20T03:04:06.760Z,16.40
2022-08-20T03:06:33.765Z,29.63
2022-08-20T03:09:00.893Z,24.65
2022-08-20T03:11:27.957Z,25.42
2022-08-20T03:13:55.387Z,28.58
2022-08-20T03:16:24.344Z,19.33
2022-08-20T03:18:52.115Z,25.35
2022-08-20T03:21:19.392Z,25.30
2022-08-20T03:23:46.286Z,21.58
2022-08-20T03:26:13.752Z,20.77
2022-08-20T03:28:41.907Z,21.52
2022-08-20T03:31:09.326Z,21.92
2022-08-20T03:33:36.359Z,25.80
2022-08-20T03:36:07.847Z,27.92
2022-08-20T03:38:35.087Z,20.00
2022-08-20T03:41:03.034Z,32.60
2022-08-20T03:43:30.814Z,22.70
2022-08-20T03:45:57.827Z,23.00
2022-08-20T03:48:26.140Z,18.60
2022-08-20T03:50:53.150Z,22.02
2022-08-20T03:53:20.134Z,20.55
2022-08-20T03:55:53.941Z,25.90
2022-08-20T03:58:34.812Z,17.60
2022-08-20T04:01:04.259Z,24.33
2022-08-20T04:03:31.247Z,15.18
2022-08-20T04:05:58.885Z,15.27
2022-08-20T04:08:29.467Z,22.20
2022-08-20T04:10:57.783Z,21.20
2022-08-20T04:13:26.319Z,23.48
2022-08-20T04:15:57.264Z,22.63
2022-08-20T04:18:26.155Z,17.73
2022-08-20T04:20:54.199Z,20.20
2022-08-20T04:23:22.103Z,17.65
2022-08-20T04:25:49.790Z,24.00
2022-08-20T04:28:29.101Z,20.48
2022-08-20T04:30:58.794Z,18.23
2022-08-20T04:33:33.963Z,21.80
2022-08-20T04:36:06.220Z,18.15
2022-08-20T04:38:49.830Z,23.45
2022-08-20T04:41:24.031Z,20.63
2022-08-20T04:43:54.259Z,20.42
2022-08-20T04:46:25.561Z,20.13
2022-08-20T04:48:53.356Z,21.70
2022-08-20T04:51:23.316Z,22.23
2022-08-20T04:53:53.554Z,19.10
2022-08-20T04:56:34.793Z,18.35
2022-08-20T04:59:02.215Z,19.05
2022-08-20T05:01:29.820Z,23.75
2022-08-20T05:03:58.274Z,20.45
2022-08-20T05:06:31.630Z,20.90
2022-08-20T05:09:00.020Z,21.10
2022-08-20T05:11:35.692Z,20.52
2022-08-20T05:14:09.345Z,16.38
2022-08-20T05:16:38.585Z,20.50
2022-08-20T05:19:10.689Z,20.60
2022-08-20T05:21:38.855Z,17.50
2022-08-20T05:24:07.122Z,18.15
2022-08-20T05:26:34.302Z,20.83
2022-08-20T05:29:02.135Z,20.50
2022-08-20T05:31:32.066Z,20.08
2022-08-20T05:34:02.987Z,16.80
2022-08-20T05:36:30.234Z,19.92
2022-08-20T05:38:57.208Z,17.25
2022-08-20T05:41:28.740Z,15.05
2022-08-20T05:44:02.860Z,17.33
2022-08-20T05:46:31.921Z,11.88
2022-08-20T05:49:01.752Z,16.58
2022-08-20T05:51:30.109Z,17.88
2022-08-20T05:53:59.092Z,20.65
2022-08-20T05:56:27.053Z,14.95
2022-08-20T05:58:54.415Z,13.95
2022-08-20T06:01:22.077Z,15.73
2022-08-20T06:04:07.847Z,16.17
2022-08-20T06:06:44.487Z,13.15
2022-08-20T06:09:12.599Z,17.42
2022-08-20T06:11:39.562Z,11.23
2022-08-20T06:14:06.589Z,15.38
2022-08-20T06:16:34.187Z,13.30
2022-08-20T06:19:04.595Z,10.23
2022-08-20T06:21:31.522Z,13.15
2022-08-20T06:24:00.878Z,10.85
2022-08-20T06:26:29.898Z,11.98
2022-08-20T06:28:59.731Z,14.60
2022-08-20T06:31:27.566Z,10.43
2022-08-20T06:33:55.154Z,10.32
2022-08-20T06:36:22.235Z,14.95
2022-08-20T06:38:49.366Z,11.57
2022-08-20T06:41:17.332Z,11.02
2022-08-20T06:43:44.284Z,9.68
2022-08-20T06:46:11.326Z,14.32
2022-08-20T06:48:38.356Z,12.25
2022-08-20T06:51:06.812Z,8.75
2022-08-20T06:53:33.929Z,13.55
2022-08-20T06:56:01.174Z,12.90
2022-08-20T06:58:37.965Z,17.48
2022-08-20T07:01:11.192Z,15.98
2022-08-20T07:03:54.642Z,13.35
2022-08-20T07:06:25.692Z,11.48
2022-08-20T07:08:56.537Z,13.27
2022-08-20T07:11:28.057Z,12.07
2022-08-20T07:13:57.126Z,16.23
2022-08-20T07:16:24.591Z,13.15
2022-08-20T07:18:51.606Z,9.45
2022-08-20T07:21:18.886Z,13.90
2022-08-20T07:23:45.898Z,12.93
2022-08-20T07:26:13.328Z,21.17
2022-08-20T07:28:40.435Z,14.35
2022-08-20T07:31:26.003Z,13.10
2022-08-20T07:33:54.111Z,15.10
2022-08-20T07:36:21.032Z,13.23
2022-08-20T07:38:51.128Z,13.90
2022-08-20T07:41:21.071Z,12.40
2022-08-20T07:43:49.256Z,13.90
2022-08-20T07:46:20.883Z,13.68
2022-08-20T07:48:50.948Z,12.02
2022-08-20T07:51:21.349Z,11.35
2022-08-20T07:53:49.312Z,9.35
2022-08-20T07:56:22.553Z,8.43
2022-08-20T07:58:55.604Z,17.13
2022-08-20T08:01:26.118Z,11.90
2022-08-20T08:03:53.591Z,10.75
2022-08-20T08:06:29.503Z,11.30
2022-08-20T08:09:18.342Z,12.35
2022-08-20T08:11:51.828Z,7.75
2022-08-20T08:14:23.654Z,10.93
2022-08-20T08:16:52.923Z,9.00
2022-08-20T08:19:20.327Z,10.18
2022-08-20T08:21:47.396Z,8.88
2022-08-20T08:24:19.960Z,6.82
2022-08-20T08:26:50.216Z,9.93
2022-08-20T08:29:17.723Z,11.82
2022-08-20T08:31:44.974Z,6.57
2022-08-20T08:34:13.056Z,8.27
2022-08-20T08:36:48.151Z,8.60
2022-08-20T08:39:23.139Z,6.38
2022-08-20T08:41:52.447Z,9.10
2022-08-20T08:44:39.573Z,4.95
2022-08-20T08:47:25.343Z,8.07
2022-08-20T08:49:52.487Z,11.88
2022-08-20T08:52:27.231Z,7.78
2022-08-20T08:54:58.457Z,8.73
2022-08-20T08:57:26.025Z,7.18
2022-08-20T09:00:21.640Z,8.18
2022-08-20T09:03:02.785Z,9.05
2022-08-20T09:05:43.212Z,9.30
2022-08-20T09:08:16.835Z,10.25
2022-08-20T09:10:45.052Z,13.95
2022-08-20T09:13:12.588Z,15.80
2022-08-20T09:15:39.572Z,11.13
2022-08-20T09:18:06.568Z,10.70
2022-08-20T09:20:34.276Z,9.50
2022-08-20T09:23:01.214Z,7.25
2022-08-20T09:25:28.188Z,7.57
2022-08-20T09:27:55.143Z,8.02
2022-08-20T09:30:22.152Z,5.32
2022-08-20T09:32:54.031Z,10.23
2022-08-20T09:35:21.096Z,8.38
2022-08-20T09:37:50.995Z,9.35
2022-08-20T09:40:21.056Z,8.82
2022-08-20T09:42:49.547Z,16.17
2022-08-20T09:45:16.438Z,8.13
2022-08-20T09:47:51.771Z,8.35
2022-08-20T09:50:25.091Z,13.40
2022-08-20T09:52:53.931Z,8.82
2022-08-20T09:55:28.546Z,14.18
2022-08-20T09:57:55.777Z,10.68
2022-08-20T10:00:22.937Z,10.02
2022-08-20T10:02:49.954Z,9.35
2022-08-20T10:05:17.111Z,11.23
2022-08-20T10:07:44.280Z,15.30
2022-08-20T10:10:14.294Z,9.23
2022-08-20T10:12:41.960Z,14.80
2022-08-20T10:15:09.960Z,10.73
2022-08-20T10:17:42.268Z,7.78
2022-08-20T10:20:12.399Z,11.95
2022-08-20T10:22:39.348Z,10.23
2022-08-20T10:25:07.103Z,14.02
2022-08-20T10:27:34.232Z,9.65
2022-08-20T10:30:01.603Z,8.15
2022-08-20T10:32:28.730Z,8.88
2022-08-20T10:34:55.656Z,5.85
2022-08-20T10:37:24.976Z,9.98
2022-08-20T10:39:52.946Z,10.43
2022-08-20T10:42:20.126Z,14.20
2022-08-20T10:44:47.051Z,9.80
2022-08-20T10:47:26.980Z,7.03
2022-08-20T10:49:55.838Z,8.52
2022-08-20T10:52:24.019Z,9.23
2022-08-20T10:54:51.840Z,15.35
2022-08-20T10:57:22.146Z,9.07
2022-08-20T10:59:51.203Z,10.32
2022-08-20T11:02:19.408Z,20.08
2022-08-20T11:04:46.692Z,10.40
2022-08-20T11:07:18.819Z,10.23
2022-08-20T11:09:48.411Z,11.15
2022-08-20T11:12:17.515Z,9.05
2022-08-20T11:14:44.637Z,10.27
2022-08-20T11:17:12.295Z,6.93
2022-08-20T11:19:44.136Z,10.93
2022-08-20T11:22:11.834Z,10.63
2022-08-20T11:24:38.952Z,14.25
2022-08-20T11:27:08.015Z,10.63
2022-08-20T11:29:36.349Z,8.95
2022-08-20T11:32:04.991Z,10.63
2022-08-20T11:34:34.034Z,8.70
2022-08-20T11:37:01.545Z,13.35
2022-08-20T11:39:28.528Z,6.97
2022-08-20T11:41:55.773Z,6.60
2022-08-20T11:44:22.763Z,7.95
2022-08-20T11:46:50.023Z,11.75
2022-08-20T11:49:17.130Z,6.88
2022-08-20T11:51:49.692Z,8.82
2022-08-20T11:54:17.521Z,10.85
2022-08-20T11:56:45.865Z,8.63
2022-08-20T11:59:13.840Z,9.65
2022-08-20T12:01:40.773Z,7.50
2022-08-20T12:04:13.619Z,7.25
2022-08-20T12:06:40.517Z,14.13
2022-08-20T12:09:07.557Z,8.23
2022-08-20T12:11:34.590Z,9.75
2022-08-20T12:14:01.519Z,11.93
2022-08-20T12:16:28.468Z,12.73
2022-08-20T12:18:55.534Z,9.18
2022-08-20T12:21:22.465Z,6.32
2022-08-20T12:23:49.492Z,7.80
2022-08-20T12:26:16.845Z,8.60
2022-08-20T12:28:43.851Z,9.45
2022-08-20T12:31:10.942Z,9.90
2022-08-20T12:33:38.018Z,9.20
2022-08-20T12:36:05.331Z,8.25
2022-08-20T12:38:32.338Z,10.48
2022-08-20T12:40:59.367Z,7.93
2022-08-20T12:43:26.698Z,10.30
2022-08-20T12:45:53.879Z,11.10
2022-08-20T12:48:21.203Z,10.57
2022-08-20T12:50:50.008Z,7.25
2022-08-20T12:53:17.096Z,8.15
2022-08-20T12:55:44.132Z,9.30
2022-08-20T12:58:11.524Z,8.00
2022-08-20T13:00:48.536Z,8.52
2022-08-20T13:03:19.770Z,10.32
2022-08-20T13:05:47.642Z,12.57
2022-08-20T13:08:14.679Z,10.15
2022-08-20T13:10:45.447Z,5.47
2022-08-20T13:13:20.827Z,6.18
2022-08-20T13:15:50.359Z,9.52
2022-08-20T13:18:17.361Z,8.70
2022-08-20T13:20:44.844Z,10.10
2022-08-20T13:23:11.754Z,8.27
2022-08-20T13:25:38.736Z,11.07
2022-08-20T13:28:06.142Z,10.27
2022-08-20T13:30:36.751Z,7.53
2022-08-20T13:33:04.208Z,8.45
2022-08-20T13:35:31.420Z,8.38
2022-08-20T13:37:58.365Z,9.75
2022-08-20T13:40:25.990Z,7.13
2022-08-20T13:42:52.976Z,8.93
2022-08-20T13:45:19.979Z,10.90
2022-08-20T13:47:47.168Z,9.25
2022-08-20T13:50:18.265Z,8.73
2022-08-20T13:52:46.192Z,7.68
2022-08-20T13:55:17.423Z,7.70
2022-08-20T13:57:46.554Z,7.10
2022-08-20T14:00:31.387Z,11.50
2022-08-20T14:03:00.398Z,8.23
2022-08-20T14:05:27.629Z,9.07
2022-08-20T14:07:54.795Z,11.13
2022-08-20T14:10:26.876Z,8.18
2022-08-20T14:12:53.882Z,13.02
2022-08-20T14:15:20.978Z,11.48
2022-08-20T14:17:53.923Z,10.43
2022-08-20T14:20:25.625Z,9.10
2022-08-20T14:22:57.359Z,9.75
2022-08-20T14:25:25.992Z,9.00
2022-08-20T14:27:54.054Z,7.60
2022-08-20T14:30:24.703Z,12.25
2022-08-20T14:32:52.767Z,15.30
2022-08-20T14:35:20.248Z,7.10
2022-08-20T14:37:55.463Z,10.45
2022-08-20T14:40:24.686Z,7.05
2022-08-20T14:42:52.509Z,8.90
2022-08-20T14:45:20.766Z,10.38
2022-08-20T14:47:54.263Z,10.00
2022-08-20T14:50:26.689Z,9.38
2022-08-20T14:52:54.549Z,10.70
2022-08-20T14:55:24.725Z,14.10
2022-08-20T14:57:52.282Z,10.40
2022-08-20T15:00:23.330Z,9.88
2022-08-20T15:02:50.531Z,8.98
2022-08-20T15:05:17.799Z,6.47
2022-08-20T15:07:48.161Z,15.35
2022-08-20T15:10:24.935Z,8.70
2022-08-20T15:12:52.004Z,14.25
2022-08-20T15:15:19.029Z,7.45
2022-08-20T15:17:57.754Z,6.88
2022-08-20T15:20:28.178Z,7.18
2022-08-20T15:22:55.753Z,9.05
2022-08-20T15:25:25.442Z,10.45
2022-08-20T15:28:00.677Z,12.18
2022-08-20T15:30:30.915Z,9.95
2022-08-20T15:32:58.109Z,7.00
2022-08-20T15:35:26.951Z,14.50
2022-08-20T15:37:57.394Z,9.40
2022-08-20T15:40:28.506Z,10.80
2022-08-20T15:42:57.249Z,8.23
2022-08-20T15:45:24.436Z,7.38
2022-08-20T15:48:07.133Z,6.05
2022-08-20T15:50:38.006Z,6.70
2022-08-20T15:53:11.686Z,10.43
2022-08-20T15:55:47.575Z,11.73
2022-08-20T15:58:24.245Z,11.57
2022-08-20T16:01:15.406Z,12.20
2022-08-20T16:04:40.238Z,6.45
2022-08-20T16:07:15.031Z,6.88
2022-08-20T16:10:21.765Z,7.20
2022-08-20T16:12:52.886Z,6.03
2022-08-20T16:15:32.212Z,10.63
2022-08-20T16:18:02.085Z,9.13
2022-08-20T16:20:35.928Z,12.35
2022-08-20T16:23:04.378Z,6.35
2022-08-20T16:25:58.698Z,11.10
2022-08-20T16:28:36.639Z,8.77
2022-08-20T16:31:08.623Z,9.60
2022-08-20T16:34:33.913Z,6.78
2022-08-20T16:37:25.442Z,10.43
2022-08-20T16:40:11.143Z,7.75
2022-08-20T16:42:43.983Z,9.77
2022-08-20T16:45:19.292Z,6.60
2022-08-20T16:47:47.578Z,10.63
2022-08-20T16:50:25.546Z,9.55
2022-08-20T16:52:52.770Z,10.77
2022-08-20T16:55:21.586Z,9.07
2022-08-20T16:57:48.886Z,5.28
2022-08-20T17:00:26.995Z,10.98
2022-08-20T17:03:01.438Z,9.43
2022-08-20T17:05:49.923Z,11.10
2022-08-20T17:08:29.993Z,6.75
2022-08-20T17:11:13.939Z,7.63
2022-08-20T17:13:46.367Z,6.23
2022-08-20T17:16:13.297Z,9.85
2022-08-20T17:18:48.872Z,7.20
2022-08-20T17:21:38.262Z,7.90
2022-08-20T17:24:30.090Z,7.47
2022-08-20T17:26:59.651Z,11.48
2022-08-20T17:29:47.054Z,7.80
2022-08-20T17:32:22.784Z,10.32
2022-08-20T17:34:53.232Z,10.32
2022-08-20T17:37:29.744Z,10.55
2022-08-20T17:40:17.210Z,10.52
2022-08-20T17:42:53.725Z,6.78
2022-08-20T17:45:28.243Z,7.35
2022-08-20T17:47:59.544Z,9.07
2022-08-20T17:50:35.266Z,9.68
2022-08-20T17:53:23.400Z,6.43
2022-08-20T17:56:01.938Z,7.25
2022-08-20T17:58:54.329Z,9.20
2022-08-20T18:01:23.699Z,10.25
2022-08-20T18:03:52.684Z,7.18
2022-08-20T18:06:32.408Z,8.05
2022-08-20T18:09:23.159Z,8.52
2022-08-20T18:12:00.485Z,8.93
2022-08-20T18:14:30.153Z,10.13
2022-08-20T18:17:16.112Z,7.05
2022-08-20T18:20:24.315Z,9.18
2022-08-20T18:23:06.260Z,8.10
2022-08-20T18:25:45.996Z,8.02
2022-08-20T18:28:44.907Z,7.50
2022-08-20T18:31:26.839Z,9.18
2022-08-20T18:33:54.198Z,6.80
2022-08-20T18:36:21.048Z,8.18
2022-08-20T18:39:08.029Z,9.68
2022-08-20T18:41:38.736Z,12.27
2022-08-20T18:44:12.005Z,6.25
2022-08-20T18:47:01.027Z,9.50
2022-08-20T18:49:37.227Z,13.02
2022-08-20T18:52:22.980Z,10.18
2022-08-20T18:54:53.600Z,9.52
2022-08-20T18:57:27.018Z,10.82
2022-08-20T19:00:05.383Z,10.40
2022-08-20T19:02:34.947Z,5.00
2022-08-20T19:05:10.056Z,8.45
2022-08-20T19:07:48.614Z,6.43
2022-08-20T19:10:33.721Z,7.30
2022-08-20T19:13:27.691Z,6.50
2022-08-20T19:16:04.775Z,7.95
2022-08-20T19:18:51.929Z,7.78
2022-08-20T19:21:42.449Z,9.05
2022-08-20T19:24:11.517Z,9.82
2022-08-20T19:26:45.394Z,9.73
2022-08-20T19:29:22.615Z,5.93
2022-08-20T19:31:49.788Z,8.60
2022-08-20T19:34:24.077Z,8.85
2022-08-20T19:37:35.501Z,6.82
2022-08-20T19:42:43.236Z,8.40
2022-08-20T19:45:19.280Z,9.13
2022-08-20T19:48:12.660Z,8.68
2022-08-20T19:50:51.641Z,9.60
2022-08-20T19:53:30.063Z,6.80
2022-08-20T19:56:12.223Z,8.85
2022-08-20T19:58:39.958Z,8.90
2022-08-20T20:01:17.164Z,7.47
2022-08-20T20:04:05.363Z,9.48
2022-08-20T20:06:36.854Z,11.05
2022-08-20T20:09:26.412Z,13.95
2022-08-20T20:11:59.898Z,9.65
2022-08-20T20:14:33.007Z,9.98
2022-08-20T20:17:01.248Z,10.95
2022-08-20T20:19:28.583Z,8.55
2022-08-20T20:22:18.842Z,9.88
2022-08-20T20:24:58.381Z,9.48
2022-08-20T20:27:27.638Z,8.73
2022-08-20T20:30:08.518Z,9.32
2022-08-20T20:32:40.068Z,7.22
2022-08-20T20:35:07.579Z,9.43
2022-08-20T20:37:50.869Z,7.00
2022-08-20T20:40:45.348Z,8.63
2022-08-20T20:43:23.319Z,9.43
2022-08-20T20:46:07.064Z,11.13
2022-08-20T20:48:48.481Z,7.45
2022-08-20T20:51:30.844Z,9.65
2022-08-20T20:54:02.216Z,7.95
2022-08-20T20:56:41.878Z,6.65
2022-08-20T20:59:10.670Z,11.48
2022-08-20T21:01:48.088Z,10.60
2022-08-20T21:04:18.762Z,8.85
2022-08-20T21:06:46.091Z,7.10
2022-08-20T21:09:13.284Z,4.70
2022-08-20T21:11:40.240Z,8.65
2022-08-20T21:14:07.240Z,7.22
2022-08-20T21:16:34.214Z,7.53
2022-08-20T21:19:04.602Z,7.53
2022-08-20T21:21:32.555Z,11.40
2022-08-20T21:23:59.491Z,10.27
2022-08-20T21:26:28.321Z,8.05
2022-08-20T21:28:55.704Z,8.18
2022-08-20T21:31:26.053Z,6.28
2022-08-20T21:33:53.022Z,6.45
2022-08-20T21:36:19.916Z,8.32
2022-08-20T21:38:46.860Z,6.95
2022-08-20T21:41:14.677Z,8.05
2022-08-20T21:43:42.836Z,7.80
2022-08-20T21:46:12.901Z,9.82
2022-08-20T21:48:40.259Z,6.32
2022-08-20T21:51:07.241Z,10.55
2022-08-20T21:53:34.163Z,6.70
2022-08-20T21:56:01.655Z,6.45
2022-08-20T21:58:28.660Z,8.90
2022-08-20T22:01:01.980Z,7.18
2022-08-20T22:03:36.897Z,5.85
2022-08-20T22:06:07.702Z,9.60
2022-08-20T22:08:35.216Z,10.45
2022-08-20T22:11:02.980Z,8.10
2022-08-20T22:13:33.369Z,8.90
2022-08-20T22:16:02.700Z,9.15
2022-08-20T22:18:29.919Z,7.32
2022-08-20T22:20:57.525Z,9.65
2022-08-20T22:23:24.988Z,7.82
2022-08-20T22:25:52.010Z,5.60
2022-08-20T22:28:20.286Z,7.47
2022-08-20T22:30:47.371Z,8.20
2022-08-20T22:33:19.907Z,7.40
2022-08-20T22:35:50.103Z,8.57
2022-08-20T22:38:17.646Z,7.45
2022-08-20T22:40:45.120Z,6.93
2022-08-20T22:43:12.994Z,7.55
2022-08-20T22:45:41.984Z,5.43
2022-08-20T22:48:09.758Z,7.35
2022-08-20T22:50:37.971Z,6.05
2022-08-20T22:53:07.527Z,7.88
2022-08-20T22:55:35.208Z,5.45
2022-08-20T22:58:03.359Z,6.28
2022-08-20T23:00:32.354Z,7.07
2022-08-20T23:03:01.310Z,7.47
2022-08-20T23:05:31.823Z,7.10
2022-08-20T23:07:59.987Z,10.15
2022-08-20T23:10:28.780Z,6.13
2022-08-20T23:12:57.098Z,7.28
2022-08-20T23:15:26.262Z,8.48
2022-08-20T23:17:56.950Z,13.25
2022-08-20T23:20:24.094Z,5.22
2022-08-20T23:22:51.083Z,8.35
2022-08-20T23:25:21.697Z,7.40
2022-08-20T23:27:52.136Z,10.90
2022-08-20T23:30:21.091Z,7.40
2022-08-20T23:32:48.605Z,6.97
2022-08-20T23:35:16.563Z,5.68
2022-08-20T23:37:48.045Z,6.97
2022-08-20T23:40:17.052Z,7.63
2022-08-20T23:42:44.038Z,6.07
2022-08-20T23:45:11.628Z,6.82
2022-08-20T23:47:38.795Z,10.77
2022-08-20T23:50:07.866Z,5.53
2022-08-20T23:52:34.912Z,7.20
2022-08-20T23:55:01.858Z,8.35
2022-08-20T23:57:28.795Z,6.07
2022-08-20T23:59:56.075Z,7.20
